Hiawassee, GA (30546)

1:02 AM EDT on April 26, 2015 (GMT -0400)
WY2K/4 Hiawassee | | Change Station
CLOSE
Current Station
Personal Weather Station
Location: Hiawassee, GA
Elevation: 2105 ft
Nearby Weather Stations

Elev 2105 ft 34.93 °N, 83.73 °W | Updated 7 minutes ago

Partly Cloudy
Partly Cloudy
63.5 °F
Feels Like 63.5 °F
N
2.7
Wind Variable Wind from East

Today
High -- | Low -- °F
--% Chance of Precip.
Yesterday
High -- | Low -- °F
Precip. -- in
6:49 AM 8:15 PM
First Quarter, 52% visible
Pressure 29.62 in
Visibility 7.0 miles
Clouds Scattered Clouds 2800 ft
Mostly Cloudy 3500 ft
Overcast 4500 ft
Dew Point 58 °F
Humidity 83%
Rainfall 0.00 in
Snow Depth Not available.
UV 0 out of 12
Pollen 4.10 out of 12
Air Quality Not available.
Flu Activity Sporadic
METAR KRHP 260455Z AUTO 00000KT 7SM SCT028 BKN035 OVC045 16/16 A2962 RMK AO2 T01600160

More Conditions Fewer Conditions

Pressure 29.62 in
Visibility 7.0 miles
Clouds Scattered Clouds 2800 ft
Mostly Cloudy 3500 ft
Overcast 4500 ft
Dew Point 58 °F
Humidity 83%
Rainfall 0.00 in
Snow Depth Not available.
UV 0 out of 12
Pollen 4.10 out of 12
Air Quality Not available.
Flu Activity Sporadic
METAR KRHP 260455Z AUTO 00000KT 7SM SCT028 BKN035 OVC045 16/16 A2962 RMK AO2 T01600160

More Conditions Fewer Conditions

The full scope of the disaster following a powerful 7.8-magnitude earthquake in Nepal may not come into view for days, but global charities are already sending emergency aid. Click to see how you can help.

10-Day Weather Forecast

Almanac

Astronomy

Apr. 26, 2015 Rise Set
Actual Time
Civil Twilight
Nautical Twilight
Astronomical Twilight
Moon
Length of Visible Light
Length of Day
Tomorrow will be .
, % of the Moon is Illuminated

Today's Extremes

State Highs State Lows

Community

WunderPhotos

Upload Photos

1,816,942 photos uploaded!

WunderBlogs® & News

Nearby

Air Quality

  Air Quality AQ Index Pollutant
Not available.

Snow Depth

Station Depth Elevation

Earthquake Activity

City Distance Mag. Time & Date
Minimum magnitude displayed is 2.5.

Coastal Water Temperatures

Place Temperature

Stations

Nearby Weather Stations

Station Location Temp. Windchill Dew Point Humidity Wind Precip. Elev Updated Type